sensor_id;sensor_type;location;lat;lon;timestamp;P1;durP1;ratioP1;P2;durP2;ratioP2
65936;SDS011;52707;52.086;5.418;2022-09-23T00:01:32;6.15;;;4.10;;
65936;SDS011;52707;52.086;5.418;2022-09-23T00:03:58;6.10;;;3.92;;
65936;SDS011;52707;52.086;5.418;2022-09-23T00:06:25;9.30;;;3.60;;
65936;SDS011;52707;52.086;5.418;2022-09-23T00:08:53;4.93;;;3.80;;
65936;SDS011;52707;52.086;5.418;2022-09-23T00:11:23;9.73;;;4.35;;
65936;SDS011;52707;52.086;5.418;2022-09-23T00:16:21;10.45;;;4.32;;
65936;SDS011;52707;52.086;5.418;2022-09-23T00:18:47;5.22;;;3.75;;
65936;SDS011;52707;52.086;5.418;2022-09-23T00:21:17;8.40;;;4.68;;
65936;SDS011;52707;52.086;5.418;2022-09-23T00:23:43;12.52;;;5.47;;
65936;SDS011;52707;52.086;5.418;2022-09-23T00:26:11;6.55;;;4.80;;
65936;SDS011;52707;52.086;5.418;2022-09-23T00:28:37;8.55;;;5.55;;
65936;SDS011;52707;52.086;5.418;2022-09-23T00:31:05;11.70;;;5.43;;
65936;SDS011;52707;52.086;5.418;2022-09-23T00:33:31;7.78;;;5.07;;
65936;SDS011;52707;52.086;5.418;2022-09-23T00:35:59;10.57;;;5.93;;
65936;SDS011;52707;52.086;5.418;2022-09-23T00:38:25;11.50;;;5.60;;
65936;SDS011;52707;52.086;5.418;2022-09-23T00:40:51;6.38;;;5.70;;
65936;SDS011;52707;52.086;5.418;2022-09-23T00:43:18;11.40;;;6.25;;
65936;SDS011;52707;52.086;5.418;2022-09-23T00:45:46;12.52;;;5.28;;
65936;SDS011;52707;52.086;5.418;2022-09-23T00:48:16;6.38;;;5.07;;
65936;SDS011;52707;52.086;5.418;2022-09-23T00:50:43;7.40;;;4.60;;
65936;SDS011;52707;52.086;5.418;2022-09-23T00:53:11;5.55;;;4.95;;
65936;SDS011;52707;52.086;5.418;2022-09-23T00:55:40;5.90;;;5.25;;
65936;SDS011;52707;52.086;5.418;2022-09-23T00:58:08;13.45;;;4.85;;
65936;SDS011;52707;52.086;5.418;2022-09-23T01:00:36;11.52;;;4.43;;
65936;SDS011;52707;52.086;5.418;2022-09-23T01:03:03;10.25;;;4.75;;
65936;SDS011;52707;52.086;5.418;2022-09-23T01:05:30;7.80;;;5.03;;
65936;SDS011;52707;52.086;5.418;2022-09-23T01:07:57;10.48;;;4.95;;
65936;SDS011;52707;52.086;5.418;2022-09-23T01:10:23;5.75;;;4.93;;
65936;SDS011;52707;52.086;5.418;2022-09-23T01:15:24;8.95;;;5.28;;
65936;SDS011;52707;52.086;5.418;2022-09-23T01:18:11;5.15;;;4.50;;
65936;SDS011;52707;52.086;5.418;2022-09-23T01:26:55;6.00;;;4.57;;
65936;SDS011;52707;52.086;5.418;2022-09-23T01:29:07;9.85;;;5.03;;
65936;SDS011;52707;52.086;5.418;2022-09-23T01:31:41;6.93;;;4.47;;
65936;SDS011;52707;52.086;5.418;2022-09-23T01:34:10;9.63;;;4.60;;
65936;SDS011;52707;52.086;5.418;2022-09-23T01:36:46;8.27;;;4.90;;
65936;SDS011;52707;52.086;5.418;2022-09-23T01:39:21;13.15;;;4.80;;
65936;SDS011;52707;52.086;5.418;2022-09-23T01:41:51;9.02;;;4.63;;
65936;SDS011;52707;52.086;5.418;2022-09-23T01:46:52;5.35;;;4.35;;
65936;SDS011;52707;52.086;5.418;2022-09-23T01:49:21;7.13;;;4.40;;
65936;SDS011;52707;52.086;5.418;2022-09-23T01:51:52;4.38;;;3.67;;
65936;SDS011;52707;52.086;5.418;2022-09-23T01:56:48;12.95;;;4.38;;
65936;SDS011;52707;52.086;5.418;2022-09-23T02:02:13;5.90;;;3.78;;
65936;SDS011;52707;52.086;5.418;2022-09-23T02:04:48;6.85;;;4.35;;
65936;SDS011;52707;52.086;5.418;2022-09-23T02:07:18;7.10;;;4.25;;
65936;SDS011;52707;52.086;5.418;2022-09-23T02:09:46;8.65;;;3.83;;
65936;SDS011;52707;52.086;5.418;2022-09-23T02:12:15;6.45;;;4.00;;
65936;SDS011;52707;52.086;5.418;2022-09-23T02:14:49;8.25;;;4.25;;
65936;SDS011;52707;52.086;5.418;2022-09-23T02:17:22;5.20;;;3.55;;
65936;SDS011;52707;52.086;5.418;2022-09-23T02:19:51;11.02;;;4.15;;
65936;SDS011;52707;52.086;5.418;2022-09-23T02:23:05;4.97;;;3.83;;
65936;SDS011;52707;52.086;5.418;2022-09-23T02:25:06;4.78;;;3.50;;
65936;SDS011;52707;52.086;5.418;2022-09-23T02:27:38;5.63;;;3.95;;
65936;SDS011;52707;52.086;5.418;2022-09-23T02:30:09;5.18;;;3.40;;
65936;SDS011;52707;52.086;5.418;2022-09-23T02:32:44;5.03;;;4.00;;
65936;SDS011;52707;52.086;5.418;2022-09-23T02:40:11;12.30;;;4.30;;
65936;SDS011;52707;52.086;5.418;2022-09-23T02:45:15;11.35;;;4.30;;
65936;SDS011;52707;52.086;5.418;2022-09-23T02:47:41;7.90;;;4.43;;
65936;SDS011;52707;52.086;5.418;2022-09-23T02:50:09;6.30;;;4.20;;
65936;SDS011;52707;52.086;5.418;2022-09-23T02:52:36;4.78;;;4.28;;
65936;SDS011;52707;52.086;5.418;2022-09-23T02:55:04;6.13;;;4.55;;
65936;SDS011;52707;52.086;5.418;2022-09-23T02:57:31;10.05;;;4.45;;
65936;SDS011;52707;52.086;5.418;2022-09-23T02:59:57;7.45;;;4.50;;
65936;SDS011;52707;52.086;5.418;2022-09-23T03:02:31;6.85;;;4.63;;
65936;SDS011;52707;52.086;5.418;2022-09-23T03:12:53;6.20;;;5.30;;
65936;SDS011;52707;52.086;5.418;2022-09-23T03:18:07;10.32;;;5.35;;
65936;SDS011;52707;52.086;5.418;2022-09-23T03:23:23;9.98;;;5.25;;
65936;SDS011;52707;52.086;5.418;2022-09-23T03:25:52;7.95;;;4.90;;
65936;SDS011;52707;52.086;5.418;2022-09-23T03:28:19;11.20;;;5.30;;
65936;SDS011;52707;52.086;5.418;2022-09-23T03:30:50;9.07;;;5.35;;
65936;SDS011;52707;52.086;5.418;2022-09-23T03:33:18;6.50;;;4.40;;
65936;SDS011;52707;52.086;5.418;2022-09-23T03:35:52;5.97;;;4.82;;
65936;SDS011;52707;52.086;5.418;2022-09-23T03:38:39;6.50;;;4.53;;
65936;SDS011;52707;52.086;5.418;2022-09-23T03:41:09;10.10;;;4.77;;
65936;SDS011;52707;52.086;5.418;2022-09-23T03:43:35;8.13;;;4.70;;
65936;SDS011;52707;52.086;5.418;2022-09-23T03:46:04;6.03;;;4.80;;
65936;SDS011;52707;52.086;5.418;2022-09-23T03:48:32;6.43;;;4.68;;
65936;SDS011;52707;52.086;5.418;2022-09-23T03:50:59;7.07;;;4.72;;
65936;SDS011;52707;52.086;5.418;2022-09-23T03:53:26;6.93;;;5.20;;
65936;SDS011;52707;52.086;5.418;2022-09-23T03:55:53;10.82;;;4.95;;
65936;SDS011;52707;52.086;5.418;2022-09-23T03:58:19;6.72;;;4.50;;
65936;SDS011;52707;52.086;5.418;2022-09-23T04:00:45;11.07;;;5.13;;
65936;SDS011;52707;52.086;5.418;2022-09-23T04:03:11;6.35;;;4.47;;
65936;SDS011;52707;52.086;5.418;2022-09-23T04:05:38;10.10;;;4.45;;
65936;SDS011;52707;52.086;5.418;2022-09-23T04:08:04;7.68;;;4.60;;
65936;SDS011;52707;52.086;5.418;2022-09-23T04:10:30;10.68;;;4.50;;
65936;SDS011;52707;52.086;5.418;2022-09-23T04:12:56;5.25;;;4.57;;
65936;SDS011;52707;52.086;5.418;2022-09-23T04:15:23;8.40;;;5.10;;
65936;SDS011;52707;52.086;5.418;2022-09-23T04:17:49;9.13;;;5.18;;
65936;SDS011;52707;52.086;5.418;2022-09-23T04:20:15;9.45;;;5.38;;
65936;SDS011;52707;52.086;5.418;2022-09-23T04:22:42;9.23;;;4.97;;
65936;SDS011;52707;52.086;5.418;2022-09-23T04:25:08;15.02;;;6.07;;
65936;SDS011;52707;52.086;5.418;2022-09-23T04:27:35;7.03;;;5.03;;
65936;SDS011;52707;52.086;5.418;2022-09-23T04:30:03;7.00;;;5.50;;
65936;SDS011;52707;52.086;5.418;2022-09-23T04:32:30;9.70;;;5.57;;
65936;SDS011;52707;52.086;5.418;2022-09-23T04:34:56;11.35;;;6.45;;
65936;SDS011;52707;52.086;5.418;2022-09-23T04:37:23;15.55;;;7.78;;
65936;SDS011;52707;52.086;5.418;2022-09-23T04:39:49;10.80;;;6.63;;
65936;SDS011;52707;52.086;5.418;2022-09-23T04:42:15;10.93;;;7.07;;
65936;SDS011;52707;52.086;5.418;2022-09-23T04:44:41;9.68;;;7.90;;
65936;SDS011;52707;52.086;5.418;2022-09-23T04:47:08;11.43;;;8.32;;
65936;SDS011;52707;52.086;5.418;2022-09-23T04:49:34;11.43;;;7.68;;
65936;SDS011;52707;52.086;5.418;2022-09-23T04:52:00;18.10;;;8.45;;
65936;SDS011;52707;52.086;5.418;2022-09-23T04:54:27;10.70;;;7.32;;
65936;SDS011;52707;52.086;5.418;2022-09-23T04:56:54;9.27;;;7.75;;
65936;SDS011;52707;52.086;5.418;2022-09-23T04:59:20;11.32;;;8.70;;
65936;SDS011;52707;52.086;5.418;2022-09-23T05:01:47;15.80;;;8.23;;
65936;SDS011;52707;52.086;5.418;2022-09-23T05:04:13;13.23;;;8.13;;
65936;SDS011;52707;52.086;5.418;2022-09-23T05:06:40;13.38;;;8.77;;
65936;SDS011;52707;52.086;5.418;2022-09-23T05:09:09;10.77;;;8.65;;
65936;SDS011;52707;52.086;5.418;2022-09-23T05:11:35;13.70;;;9.95;;
65936;SDS011;52707;52.086;5.418;2022-09-23T05:14:01;15.35;;;9.05;;
65936;SDS011;52707;52.086;5.418;2022-09-23T05:16:27;22.00;;;9.48;;
65936;SDS011;52707;52.086;5.418;2022-09-23T05:18:54;15.68;;;9.98;;
65936;SDS011;52707;52.086;5.418;2022-09-23T05:21:21;14.82;;;10.27;;
65936;SDS011;52707;52.086;5.418;2022-09-23T05:23:48;12.75;;;8.88;;
65936;SDS011;52707;52.086;5.418;2022-09-23T05:26:16;19.38;;;9.23;;
65936;SDS011;52707;52.086;5.418;2022-09-23T05:28:42;13.10;;;9.13;;
65936;SDS011;52707;52.086;5.418;2022-09-23T05:31:10;15.98;;;8.60;;
65936;SDS011;52707;52.086;5.418;2022-09-23T05:33:49;17.75;;;9.07;;
65936;SDS011;52707;52.086;5.418;2022-09-23T05:36:17;12.98;;;10.02;;
65936;SDS011;52707;52.086;5.418;2022-09-23T05:38:44;13.18;;;10.00;;
65936;SDS011;52707;52.086;5.418;2022-09-23T05:41:11;15.10;;;9.68;;
65936;SDS011;52707;52.086;5.418;2022-09-23T05:43:38;15.25;;;10.95;;
65936;SDS011;52707;52.086;5.418;2022-09-23T05:46:05;13.10;;;10.68;;
65936;SDS011;52707;52.086;5.418;2022-09-23T05:48:34;15.05;;;10.13;;
65936;SDS011;52707;52.086;5.418;2022-09-23T05:51:00;12.45;;;9.45;;
65936;SDS011;52707;52.086;5.418;2022-09-23T05:53:27;18.15;;;9.63;;
65936;SDS011;52707;52.086;5.418;2022-09-23T05:55:55;11.18;;;8.85;;
65936;SDS011;52707;52.086;5.418;2022-09-23T05:58:21;14.63;;;9.82;;
65936;SDS011;52707;52.086;5.418;2022-09-23T06:00:49;15.60;;;9.98;;
65936;SDS011;52707;52.086;5.418;2022-09-23T06:03:16;24.90;;;9.75;;
65936;SDS011;52707;52.086;5.418;2022-09-23T06:05:43;16.15;;;10.98;;
65936;SDS011;52707;52.086;5.418;2022-09-23T06:08:09;16.65;;;10.02;;
65936;SDS011;52707;52.086;5.418;2022-09-23T06:10:36;22.38;;;11.57;;
65936;SDS011;52707;52.086;5.418;2022-09-23T06:13:02;17.50;;;11.60;;
65936;SDS011;52707;52.086;5.418;2022-09-23T06:15:29;25.60;;;11.10;;
65936;SDS011;52707;52.086;5.418;2022-09-23T06:17:55;41.45;;;13.18;;
65936;SDS011;52707;52.086;5.418;2022-09-23T06:20:21;33.17;;;13.45;;
65936;SDS011;52707;52.086;5.418;2022-09-23T06:22:47;26.02;;;12.57;;
65936;SDS011;52707;52.086;5.418;2022-09-23T06:25:19;19.83;;;12.43;;
65936;SDS011;52707;52.086;5.418;2022-09-23T06:27:51;18.27;;;11.80;;
65936;SDS011;52707;52.086;5.418;2022-09-23T06:30:20;18.58;;;12.10;;
65936;SDS011;52707;52.086;5.418;2022-09-23T06:32:47;18.88;;;13.52;;
65936;SDS011;52707;52.086;5.418;2022-09-23T06:35:13;28.17;;;13.45;;
65936;SDS011;52707;52.086;5.418;2022-09-23T06:37:52;25.50;;;12.52;;
65936;SDS011;52707;52.086;5.418;2022-09-23T06:40:19;18.52;;;11.75;;
65936;SDS011;52707;52.086;5.418;2022-09-23T06:42:45;22.88;;;12.25;;
65936;SDS011;52707;52.086;5.418;2022-09-23T06:45:17;18.63;;;11.93;;
65936;SDS011;52707;52.086;5.418;2022-09-23T06:47:43;16.45;;;11.60;;
65936;SDS011;52707;52.086;5.418;2022-09-23T06:50:10;17.23;;;12.02;;
65936;SDS011;52707;52.086;5.418;2022-09-23T06:52:37;14.27;;;11.52;;
65936;SDS011;52707;52.086;5.418;2022-09-23T06:55:04;19.52;;;11.65;;
65936;SDS011;52707;52.086;5.418;2022-09-23T06:57:30;21.00;;;11.88;;
65936;SDS011;52707;52.086;5.418;2022-09-23T06:59:58;19.95;;;12.18;;
65936;SDS011;52707;52.086;5.418;2022-09-23T07:02:24;17.92;;;12.75;;
65936;SDS011;52707;52.086;5.418;2022-09-23T07:04:51;26.67;;;11.65;;
65936;SDS011;52707;52.086;5.418;2022-09-23T07:07:18;22.58;;;12.55;;
65936;SDS011;52707;52.086;5.418;2022-09-23T07:09:44;23.13;;;11.95;;
65936;SDS011;52707;52.086;5.418;2022-09-23T07:12:11;20.35;;;12.23;;
65936;SDS011;52707;52.086;5.418;2022-09-23T07:14:37;26.00;;;12.25;;
65936;SDS011;52707;52.086;5.418;2022-09-23T07:17:03;18.35;;;12.18;;
65936;SDS011;52707;52.086;5.418;2022-09-23T07:19:29;20.65;;;11.52;;
65936;SDS011;52707;52.086;5.418;2022-09-23T07:21:56;16.33;;;11.68;;
65936;SDS011;52707;52.086;5.418;2022-09-23T07:24:22;22.60;;;11.05;;
65936;SDS011;52707;52.086;5.418;2022-09-23T07:26:48;19.17;;;11.23;;
65936;SDS011;52707;52.086;5.418;2022-09-23T07:29:14;19.80;;;12.18;;
65936;SDS011;52707;52.086;5.418;2022-09-23T07:31:41;16.40;;;10.35;;
65936;SDS011;52707;52.086;5.418;2022-09-23T07:34:08;29.80;;;11.50;;
65936;SDS011;52707;52.086;5.418;2022-09-23T07:36:36;17.48;;;11.13;;
65936;SDS011;52707;52.086;5.418;2022-09-23T07:39:07;15.57;;;11.02;;
65936;SDS011;52707;52.086;5.418;2022-09-23T07:41:33;16.17;;;10.68;;
65936;SDS011;52707;52.086;5.418;2022-09-23T07:43:59;17.55;;;10.98;;
65936;SDS011;52707;52.086;5.418;2022-09-23T07:46:27;11.25;;;10.07;;
65936;SDS011;52707;52.086;5.418;2022-09-23T07:48:53;19.42;;;11.50;;
65936;SDS011;52707;52.086;5.418;2022-09-23T07:51:22;15.00;;;10.93;;
65936;SDS011;52707;52.086;5.418;2022-09-23T07:53:51;17.83;;;11.38;;
65936;SDS011;52707;52.086;5.418;2022-09-23T07:56:17;19.95;;;10.85;;
65936;SDS011;52707;52.086;5.418;2022-09-23T07:58:47;17.38;;;10.75;;
65936;SDS011;52707;52.086;5.418;2022-09-23T08:01:35;18.67;;;10.65;;
65936;SDS011;52707;52.086;5.418;2022-09-23T08:04:03;17.55;;;10.65;;
65936;SDS011;52707;52.086;5.418;2022-09-23T08:06:30;16.15;;;10.90;;
65936;SDS011;52707;52.086;5.418;2022-09-23T08:08:58;24.63;;;10.77;;
65936;SDS011;52707;52.086;5.418;2022-09-23T08:11:25;19.55;;;11.40;;
65936;SDS011;52707;52.086;5.418;2022-09-23T08:13:52;18.00;;;10.48;;
65936;SDS011;52707;52.086;5.418;2022-09-23T08:16:19;17.40;;;10.02;;
65936;SDS011;52707;52.086;5.418;2022-09-23T08:18:45;14.70;;;9.60;;
65936;SDS011;52707;52.086;5.418;2022-09-23T08:21:17;13.95;;;10.25;;
65936;SDS011;52707;52.086;5.418;2022-09-23T08:23:43;16.52;;;10.82;;
65936;SDS011;52707;52.086;5.418;2022-09-23T08:26:09;18.55;;;10.18;;
65936;SDS011;52707;52.086;5.418;2022-09-23T08:28:46;11.85;;;9.60;;
65936;SDS011;52707;52.086;5.418;2022-09-23T08:31:13;16.77;;;9.90;;
65936;SDS011;52707;52.086;5.418;2022-09-23T08:33:39;11.05;;;8.75;;
65936;SDS011;52707;52.086;5.418;2022-09-23T08:36:06;13.27;;;8.63;;
65936;SDS011;52707;52.086;5.418;2022-09-23T08:38:32;11.18;;;9.18;;
65936;SDS011;52707;52.086;5.418;2022-09-23T08:41:21;11.65;;;8.80;;
65936;SDS011;52707;52.086;5.418;2022-09-23T08:43:48;18.00;;;8.50;;
65936;SDS011;52707;52.086;5.418;2022-09-23T08:46:19;19.10;;;9.15;;
65936;SDS011;52707;52.086;5.418;2022-09-23T08:48:47;17.52;;;10.30;;
65936;SDS011;52707;52.086;5.418;2022-09-23T08:51:14;16.73;;;9.68;;
65936;SDS011;52707;52.086;5.418;2022-09-23T08:53:42;13.32;;;10.30;;
65936;SDS011;52707;52.086;5.418;2022-09-23T08:56:12;16.20;;;9.80;;
65936;SDS011;52707;52.086;5.418;2022-09-23T09:03:45;14.90;;;9.00;;
65936;SDS011;52707;52.086;5.418;2022-09-23T09:06:14;16.20;;;8.00;;
65936;SDS011;52707;52.086;5.418;2022-09-23T09:08:43;16.27;;;8.10;;
65936;SDS011;52707;52.086;5.418;2022-09-23T09:11:10;16.58;;;8.18;;
65936;SDS011;52707;52.086;5.418;2022-09-23T09:13:58;13.73;;;8.40;;
65936;SDS011;52707;52.086;5.418;2022-09-23T09:16:38;17.17;;;8.32;;
65936;SDS011;52707;52.086;5.418;2022-09-23T09:21:55;13.95;;;8.30;;
65936;SDS011;52707;52.086;5.418;2022-09-23T09:24:28;9.90;;;7.93;;
65936;SDS011;52707;52.086;5.418;2022-09-23T09:26:56;20.80;;;8.00;;
65936;SDS011;52707;52.086;5.418;2022-09-23T09:29:23;12.48;;;7.47;;
65936;SDS011;52707;52.086;5.418;2022-09-23T09:32:07;13.40;;;8.27;;
65936;SDS011;52707;52.086;5.418;2022-09-23T09:37:42;15.50;;;8.90;;
65936;SDS011;52707;52.086;5.418;2022-09-23T09:40:12;10.38;;;8.57;;
65936;SDS011;52707;52.086;5.418;2022-09-23T09:42:39;12.60;;;7.90;;
65936;SDS011;52707;52.086;5.418;2022-09-23T09:48:11;9.55;;;7.35;;
65936;SDS011;52707;52.086;5.418;2022-09-23T09:50:43;15.20;;;7.10;;
65936;SDS011;52707;52.086;5.418;2022-09-23T09:55:45;14.02;;;7.32;;
65936;SDS011;52707;52.086;5.418;2022-09-23T09:58:13;17.60;;;7.80;;
65936;SDS011;52707;52.086;5.418;2022-09-23T10:00:42;23.17;;;7.93;;
65936;SDS011;52707;52.086;5.418;2022-09-23T10:08:24;14.15;;;6.97;;
65936;SDS011;52707;52.086;5.418;2022-09-23T10:13:24;12.10;;;7.25;;
65936;SDS011;52707;52.086;5.418;2022-09-23T10:15:52;11.32;;;6.53;;
65936;SDS011;52707;52.086;5.418;2022-09-23T10:18:25;17.90;;;7.10;;
65936;SDS011;52707;52.086;5.418;2022-09-23T10:20:58;10.52;;;7.43;;
65936;SDS011;52707;52.086;5.418;2022-09-23T10:23:26;13.55;;;7.28;;
65936;SDS011;52707;52.086;5.418;2022-09-23T10:26:02;8.63;;;6.80;;
65936;SDS011;52707;52.086;5.418;2022-09-23T10:31:11;13.15;;;7.38;;
65936;SDS011;52707;52.086;5.418;2022-09-23T10:33:43;10.82;;;7.25;;
65936;SDS011;52707;52.086;5.418;2022-09-23T10:36:13;8.07;;;6.57;;
65936;SDS011;52707;52.086;5.418;2022-09-23T10:38:39;7.97;;;6.47;;
65936;SDS011;52707;52.086;5.418;2022-09-23T10:41:10;14.90;;;6.45;;
65936;SDS011;52707;52.086;5.418;2022-09-23T10:57:09;9.23;;;6.25;;
65936;SDS011;52707;52.086;5.418;2022-09-23T11:00:00;12.43;;;6.45;;
65936;SDS011;52707;52.086;5.418;2022-09-23T11:10:52;6.53;;;5.82;;
65936;SDS011;52707;52.086;5.418;2022-09-23T11:13:34;11.13;;;6.57;;
65936;SDS011;52707;52.086;5.418;2022-09-23T11:26:46;12.60;;;6.22;;
65936;SDS011;52707;52.086;5.418;2022-09-23T11:37:21;7.90;;;5.63;;
65936;SDS011;52707;52.086;5.418;2022-09-23T11:42:23;9.93;;;5.80;;
65936;SDS011;52707;52.086;5.418;2022-09-23T11:45:25;14.57;;;5.47;;
65936;SDS011;52707;52.086;5.418;2022-09-23T11:47:45;9.75;;;5.72;;
65936;SDS011;52707;52.086;5.418;2022-09-23T11:50:17;9.55;;;5.07;;
65936;SDS011;52707;52.086;5.418;2022-09-23T11:52:50;8.35;;;4.80;;
65936;SDS011;52707;52.086;5.418;2022-09-23T11:55:19;12.50;;;4.68;;
65936;SDS011;52707;52.086;5.418;2022-09-23T11:57:52;6.63;;;4.60;;
65936;SDS011;52707;52.086;5.418;2022-09-23T12:05:33;9.75;;;3.83;;
65936;SDS011;52707;52.086;5.418;2022-09-23T12:08:12;7.95;;;4.50;;
65936;SDS011;52707;52.086;5.418;2022-09-23T12:10:57;5.68;;;3.65;;
65936;SDS011;52707;52.086;5.418;2022-09-23T12:18:50;10.38;;;3.90;;
65936;SDS011;52707;52.086;5.418;2022-09-23T14:53:49;11.27;;;6.75;;
65936;SDS011;52707;52.086;5.418;2022-09-23T14:56:17;12.98;;;6.97;;
65936;SDS011;52707;52.086;5.418;2022-09-23T15:01:23;22.65;;;7.20;;
65936;SDS011;52707;52.086;5.418;2022-09-23T15:03:51;12.45;;;6.88;;
65936;SDS011;52707;52.086;5.418;2022-09-23T15:06:17;11.68;;;7.25;;
65936;SDS011;52707;52.086;5.418;2022-09-23T15:08:44;13.45;;;8.70;;
65936;SDS011;52707;52.086;5.418;2022-09-23T15:11:11;13.43;;;8.25;;
65936;SDS011;52707;52.086;5.418;2022-09-23T15:13:38;19.42;;;8.05;;
65936;SDS011;52707;52.086;5.418;2022-09-23T15:16:05;14.02;;;7.80;;
65936;SDS011;52707;52.086;5.418;2022-09-23T15:18:32;13.02;;;8.07;;
65936;SDS011;52707;52.086;5.418;2022-09-23T15:21:00;13.52;;;7.55;;
65936;SDS011;52707;52.086;5.418;2022-09-23T15:26:08;17.77;;;7.47;;
65936;SDS011;52707;52.086;5.418;2022-09-23T15:28:34;13.23;;;7.40;;
65936;SDS011;52707;52.086;5.418;2022-09-23T15:31:00;12.95;;;7.05;;
65936;SDS011;52707;52.086;5.418;2022-09-23T15:33:28;13.57;;;6.88;;
65936;SDS011;52707;52.086;5.418;2022-09-23T15:35:54;13.98;;;7.68;;
65936;SDS011;52707;52.086;5.418;2022-09-23T15:38:21;17.77;;;7.28;;
65936;SDS011;52707;52.086;5.418;2022-09-23T15:40:47;11.75;;;6.95;;
65936;SDS011;52707;52.086;5.418;2022-09-23T15:43:20;13.60;;;7.28;;
65936;SDS011;52707;52.086;5.418;2022-09-23T15:45:51;14.55;;;7.00;;
65936;SDS011;52707;52.086;5.418;2022-09-23T15:48:20;12.48;;;7.97;;
65936;SDS011;52707;52.086;5.418;2022-09-23T15:50:50;19.40;;;8.57;;
65936;SDS011;52707;52.086;5.418;2022-09-23T15:53:21;19.97;;;9.33;;
65936;SDS011;52707;52.086;5.418;2022-09-23T15:58:17;21.10;;;8.60;;
65936;SDS011;52707;52.086;5.418;2022-09-23T16:00:43;22.95;;;9.48;;
65936;SDS011;52707;52.086;5.418;2022-09-23T16:03:13;23.40;;;9.90;;
65936;SDS011;52707;52.086;5.418;2022-09-23T16:08:07;20.27;;;8.93;;
65936;SDS011;52707;52.086;5.418;2022-09-23T16:10:35;16.10;;;8.45;;
65936;SDS011;52707;52.086;5.418;2022-09-23T16:13:02;17.27;;;9.10;;
65936;SDS011;52707;52.086;5.418;2022-09-23T16:15:29;11.35;;;7.53;;
65936;SDS011;52707;52.086;5.418;2022-09-23T16:17:57;12.52;;;7.55;;
65936;SDS011;52707;52.086;5.418;2022-09-23T16:20:23;17.35;;;10.80;;
65936;SDS011;52707;52.086;5.418;2022-09-23T16:25:23;19.55;;;9.10;;
65936;SDS011;52707;52.086;5.418;2022-09-23T16:27:53;13.50;;;9.73;;
65936;SDS011;52707;52.086;5.418;2022-09-23T16:30:23;20.48;;;10.95;;
65936;SDS011;52707;52.086;5.418;2022-09-23T16:32:50;23.38;;;12.70;;
65936;SDS011;52707;52.086;5.418;2022-09-23T16:35:19;24.20;;;11.98;;
65936;SDS011;52707;52.086;5.418;2022-09-23T16:37:46;17.25;;;10.98;;
65936;SDS011;52707;52.086;5.418;2022-09-23T16:40:13;29.65;;;10.32;;
65936;SDS011;52707;52.086;5.418;2022-09-23T16:42:46;21.70;;;13.27;;
65936;SDS011;52707;52.086;5.418;2022-09-23T16:45:13;23.20;;;13.82;;
65936;SDS011;52707;52.086;5.418;2022-09-23T16:47:42;16.23;;;10.95;;
65936;SDS011;52707;52.086;5.418;2022-09-23T16:50:12;16.35;;;10.15;;
65936;SDS011;52707;52.086;5.418;2022-09-23T16:52:39;20.73;;;10.45;;
65936;SDS011;52707;52.086;5.418;2022-09-23T16:55:06;19.70;;;10.82;;
65936;SDS011;52707;52.086;5.418;2022-09-23T16:57:34;18.20;;;11.40;;
65936;SDS011;52707;52.086;5.418;2022-09-23T17:00:03;15.48;;;11.40;;
65936;SDS011;52707;52.086;5.418;2022-09-23T17:02:49;19.02;;;10.85;;
65936;SDS011;52707;52.086;5.418;2022-09-23T17:05:34;32.20;;;11.63;;
65936;SDS011;52707;52.086;5.418;2022-09-23T17:08:00;21.70;;;11.60;;
65936;SDS011;52707;52.086;5.418;2022-09-23T17:10:26;22.02;;;12.40;;
65936;SDS011;52707;52.086;5.418;2022-09-23T17:12:53;23.80;;;12.02;;
65936;SDS011;52707;52.086;5.418;2022-09-23T17:15:20;24.30;;;12.88;;
65936;SDS011;52707;52.086;5.418;2022-09-23T17:17:46;26.67;;;12.30;;
65936;SDS011;52707;52.086;5.418;2022-09-23T17:20:13;20.83;;;12.70;;
65936;SDS011;52707;52.086;5.418;2022-09-23T17:22:39;22.10;;;12.77;;
65936;SDS011;52707;52.086;5.418;2022-09-23T17:25:06;27.75;;;13.82;;
65936;SDS011;52707;52.086;5.418;2022-09-23T17:27:33;24.70;;;15.23;;
65936;SDS011;52707;52.086;5.418;2022-09-23T17:30:00;23.20;;;14.77;;
65936;SDS011;52707;52.086;5.418;2022-09-23T17:32:27;26.45;;;14.85;;
65936;SDS011;52707;52.086;5.418;2022-09-23T17:34:53;23.75;;;13.95;;
65936;SDS011;52707;52.086;5.418;2022-09-23T17:37:19;21.27;;;13.73;;
65936;SDS011;52707;52.086;5.418;2022-09-23T17:39:46;20.80;;;14.38;;
65936;SDS011;52707;52.086;5.418;2022-09-23T17:42:12;20.70;;;14.13;;
65936;SDS011;52707;52.086;5.418;2022-09-23T17:44:40;35.15;;;15.88;;
65936;SDS011;52707;52.086;5.418;2022-09-23T17:47:06;25.42;;;15.02;;
65936;SDS011;52707;52.086;5.418;2022-09-23T17:49:32;23.23;;;15.30;;
65936;SDS011;52707;52.086;5.418;2022-09-23T17:52:01;33.03;;;18.85;;
65936;SDS011;52707;52.086;5.418;2022-09-23T17:54:29;24.30;;;15.80;;
65936;SDS011;52707;52.086;5.418;2022-09-23T17:56:59;28.45;;;15.18;;
65936;SDS011;52707;52.086;5.418;2022-09-23T17:59:26;23.70;;;14.30;;
65936;SDS011;52707;52.086;5.418;2022-09-23T18:01:52;27.52;;;15.77;;
65936;SDS011;52707;52.086;5.418;2022-09-23T18:04:19;32.90;;;16.02;;
65936;SDS011;52707;52.086;5.418;2022-09-23T18:06:45;26.40;;;16.77;;
65936;SDS011;52707;52.086;5.418;2022-09-23T18:09:12;50.67;;;28.25;;
65936;SDS011;52707;52.086;5.418;2022-09-23T18:11:39;31.02;;;19.73;;
65936;SDS011;52707;52.086;5.418;2022-09-23T18:14:16;31.95;;;21.85;;
65936;SDS011;52707;52.086;5.418;2022-09-23T18:16:44;32.10;;;17.38;;
65936;SDS011;52707;52.086;5.418;2022-09-23T18:19:11;27.25;;;17.00;;
65936;SDS011;52707;52.086;5.418;2022-09-23T18:21:39;26.83;;;16.70;;
65936;SDS011;52707;52.086;5.418;2022-09-23T18:24:06;28.58;;;18.65;;
65936;SDS011;52707;52.086;5.418;2022-09-23T18:26:52;30.75;;;19.25;;
65936;SDS011;52707;52.086;5.418;2022-09-23T18:29:21;30.70;;;19.98;;
65936;SDS011;52707;52.086;5.418;2022-09-23T18:31:47;33.45;;;21.38;;
65936;SDS011;52707;52.086;5.418;2022-09-23T18:34:14;30.55;;;19.15;;
65936;SDS011;52707;52.086;5.418;2022-09-23T18:36:45;28.85;;;19.85;;
65936;SDS011;52707;52.086;5.418;2022-09-23T18:39:11;28.95;;;19.48;;
65936;SDS011;52707;52.086;5.418;2022-09-23T18:41:37;26.67;;;19.85;;
65936;SDS011;52707;52.086;5.418;2022-09-23T18:44:04;28.88;;;19.60;;
65936;SDS011;52707;52.086;5.418;2022-09-23T18:46:30;27.38;;;19.70;;
65936;SDS011;52707;52.086;5.418;2022-09-23T18:48:57;31.83;;;18.33;;
65936;SDS011;52707;52.086;5.418;2022-09-23T18:52:00;31.65;;;17.65;;
65936;SDS011;52707;52.086;5.418;2022-09-23T18:54:27;35.65;;;19.40;;
65936;SDS011;52707;52.086;5.418;2022-09-23T18:56:54;30.20;;;19.85;;
65936;SDS011;52707;52.086;5.418;2022-09-23T18:59:21;31.33;;;20.52;;
65936;SDS011;52707;52.086;5.418;2022-09-23T19:01:49;30.00;;;19.73;;
65936;SDS011;52707;52.086;5.418;2022-09-23T19:04:17;31.08;;;21.17;;
65936;SDS011;52707;52.086;5.418;2022-09-23T19:06:43;43.63;;;30.60;;
65936;SDS011;52707;52.086;5.418;2022-09-23T19:09:10;32.28;;;20.52;;
65936;SDS011;52707;52.086;5.418;2022-09-23T19:11:37;29.00;;;19.92;;
65936;SDS011;52707;52.086;5.418;2022-09-23T19:14:04;28.90;;;19.20;;
65936;SDS011;52707;52.086;5.418;2022-09-23T19:16:31;26.35;;;18.48;;
65936;SDS011;52707;52.086;5.418;2022-09-23T19:18:58;28.20;;;17.60;;
65936;SDS011;52707;52.086;5.418;2022-09-23T19:21:25;27.50;;;18.00;;
65936;SDS011;52707;52.086;5.418;2022-09-23T19:23:52;27.67;;;18.25;;
65936;SDS011;52707;52.086;5.418;2022-09-23T19:26:23;33.65;;;19.05;;
65936;SDS011;52707;52.086;5.418;2022-09-23T19:28:53;24.30;;;18.63;;